Terminal Aerodrome Forecast
Issued by NWS

Home | Current Version | Previous Version | Text Only | Print | Product List | Glossary On
Versions: 1 2 3 4 5 6 7 8 9 10 11 12 13 14 15 16 17 18 19 20 21
983
FTUS45 KVEF 210524
TAFHND
TAF
KHND 210524Z 2106/2206 16012KT P6SM SCT090 SCT200
     FM211700 19013G20KT P6SM FEW080 BKN200
     FM212100 19018G25KT P6SM FEW080 BKN200=

USA.gov is the U.S. government's official web portal to all federal, state and local government web resources and services.